sensor_id;sensor_type;location;lat;lon;timestamp;P1;durP1;ratioP1;P2;durP2;ratioP2
25667;SDS011;18003;-33.830;151.202;2022-10-31T00:01:56;2.30;;;2.10;;
25667;SDS011;18003;-33.830;151.202;2022-10-31T00:04:26;3.37;;;2.30;;
25667;SDS011;18003;-33.830;151.202;2022-10-31T00:06:56;2.20;;;2.10;;
25667;SDS011;18003;-33.830;151.202;2022-10-31T00:09:26;2.70;;;2.25;;
25667;SDS011;18003;-33.830;151.202;2022-10-31T00:11:56;2.15;;;1.87;;
25667;SDS011;18003;-33.830;151.202;2022-10-31T00:14:26;2.87;;;1.95;;
25667;SDS011;18003;-33.830;151.202;2022-10-31T00:16:56;2.40;;;2.17;;
25667;SDS011;18003;-33.830;151.202;2022-10-31T00:19:26;2.45;;;2.10;;
25667;SDS011;18003;-33.830;151.202;2022-10-31T00:21:56;5.35;;;2.30;;
25667;SDS011;18003;-33.830;151.202;2022-10-31T00:24:26;3.52;;;2.20;;
25667;SDS011;18003;-33.830;151.202;2022-10-31T00:26:57;4.10;;;2.20;;
25667;SDS011;18003;-33.830;151.202;2022-10-31T00:29:27;2.20;;;2.00;;
25667;SDS011;18003;-33.830;151.202;2022-10-31T00:31:57;3.12;;;2.00;;
25667;SDS011;18003;-33.830;151.202;2022-10-31T00:34:27;57.83;;;5.95;;
25667;SDS011;18003;-33.830;151.202;2022-10-31T00:36:57;22.77;;;3.70;;
25667;SDS011;18003;-33.830;151.202;2022-10-31T00:39:27;15.83;;;2.72;;
25667;SDS011;18003;-33.830;151.202;2022-10-31T00:41:57;7.78;;;2.58;;
25667;SDS011;18003;-33.830;151.202;2022-10-31T00:44:27;6.75;;;2.22;;
25667;SDS011;18003;-33.830;151.202;2022-10-31T00:46:57;3.55;;;2.20;;
25667;SDS011;18003;-33.830;151.202;2022-10-31T00:49:27;3.85;;;2.27;;
25667;SDS011;18003;-33.830;151.202;2022-10-31T00:51:57;2.17;;;2.00;;
25667;SDS011;18003;-33.830;151.202;2022-10-31T00:54:28;4.75;;;2.40;;
25667;SDS011;18003;-33.830;151.202;2022-10-31T00:56:58;3.20;;;2.15;;
25667;SDS011;18003;-33.830;151.202;2022-10-31T00:59:28;2.37;;;2.15;;
25667;SDS011;18003;-33.830;151.202;2022-10-31T01:01:58;4.30;;;2.37;;
25667;SDS011;18003;-33.830;151.202;2022-10-31T01:04:28;4.60;;;2.62;;
25667;SDS011;18003;-33.830;151.202;2022-10-31T01:06:58;2.15;;;1.90;;
25667;SDS011;18003;-33.830;151.202;2022-10-31T01:09:28;2.12;;;2.02;;
25667;SDS011;18003;-33.830;151.202;2022-10-31T01:11:58;3.37;;;2.00;;
25667;SDS011;18003;-33.830;151.202;2022-10-31T01:14:28;2.22;;;2.00;;
25667;SDS011;18003;-33.830;151.202;2022-10-31T01:16:58;4.97;;;1.90;;
25667;SDS011;18003;-33.830;151.202;2022-10-31T01:19:28;3.87;;;2.40;;
25667;SDS011;18003;-33.830;151.202;2022-10-31T01:21:58;2.25;;;2.10;;
25667;SDS011;18003;-33.830;151.202;2022-10-31T01:24:28;3.52;;;2.00;;
25667;SDS011;18003;-33.830;151.202;2022-10-31T01:26:58;4.28;;;2.02;;
25667;SDS011;18003;-33.830;151.202;2022-10-31T01:29:29;3.58;;;1.90;;
25667;SDS011;18003;-33.830;151.202;2022-10-31T01:31:59;2.17;;;2.08;;
25667;SDS011;18003;-33.830;151.202;2022-10-31T01:34:29;3.42;;;2.00;;
25667;SDS011;18003;-33.830;151.202;2022-10-31T01:36:59;10.68;;;2.45;;
25667;SDS011;18003;-33.830;151.202;2022-10-31T01:39:29;3.70;;;2.50;;
25667;SDS011;18003;-33.830;151.202;2022-10-31T01:42:02;3.75;;;2.17;;
25667;SDS011;18003;-33.830;151.202;2022-10-31T01:49:42;3.15;;;1.90;;
25667;SDS011;18003;-33.830;151.202;2022-10-31T01:52:18;3.22;;;1.70;;
25667;SDS011;18003;-33.830;151.202;2022-10-31T01:54:57;2.20;;;1.72;;
25667;SDS011;18003;-33.830;151.202;2022-10-31T01:57:23;2.40;;;1.92;;
25667;SDS011;18003;-33.830;151.202;2022-10-31T01:59:57;2.25;;;1.70;;
25667;SDS011;18003;-33.830;151.202;2022-10-31T02:02:27;3.42;;;1.80;;
25667;SDS011;18003;-33.830;151.202;2022-10-31T02:05:00;2.20;;;2.00;;
25667;SDS011;18003;-33.830;151.202;2022-10-31T02:07:36;3.27;;;2.00;;
25667;SDS011;18003;-33.830;151.202;2022-10-31T02:10:07;4.33;;;1.95;;
25667;SDS011;18003;-33.830;151.202;2022-10-31T02:12:40;3.37;;;2.17;;
25667;SDS011;18003;-33.830;151.202;2022-10-31T02:15:11;2.20;;;2.10;;
25667;SDS011;18003;-33.830;151.202;2022-10-31T02:17:42;3.10;;;2.33;;
25667;SDS011;18003;-33.830;151.202;2022-10-31T02:25:42;2.33;;;1.95;;
25667;SDS011;18003;-33.830;151.202;2022-10-31T02:28:47;2.17;;;1.60;;
25667;SDS011;18003;-33.830;151.202;2022-10-31T02:31:40;2.30;;;1.50;;
25667;SDS011;18003;-33.830;151.202;2022-10-31T02:39:34;1.87;;;1.77;;
25667;SDS011;18003;-33.830;151.202;2022-10-31T02:45:00;2.75;;;1.90;;
25667;SDS011;18003;-33.830;151.202;2022-10-31T02:47:38;1.90;;;1.70;;
25667;SDS011;18003;-33.830;151.202;2022-10-31T02:50:11;3.22;;;1.82;;
25667;SDS011;18003;-33.830;151.202;2022-10-31T02:52:40;2.83;;;1.90;;
25667;SDS011;18003;-33.830;151.202;2022-10-31T02:58:02;2.02;;;1.80;;
25667;SDS011;18003;-33.830;151.202;2022-10-31T03:00:27;2.65;;;1.80;;
25667;SDS011;18003;-33.830;151.202;2022-10-31T03:08:30;1.87;;;1.55;;
25667;SDS011;18003;-33.830;151.202;2022-10-31T03:11:10;2.10;;;1.60;;
25667;SDS011;18003;-33.830;151.202;2022-10-31T03:14:17;1.77;;;1.40;;
25667;SDS011;18003;-33.830;151.202;2022-10-31T03:16:25;1.60;;;1.50;;
25667;SDS011;18003;-33.830;151.202;2022-10-31T03:19:06;2.37;;;1.67;;
25667;SDS011;18003;-33.830;151.202;2022-10-31T03:21:47;1.60;;;1.50;;
25667;SDS011;18003;-33.830;151.202;2022-10-31T03:26:52;2.58;;;1.45;;
25667;SDS011;18003;-33.830;151.202;2022-10-31T03:29:24;2.17;;;1.70;;
25667;SDS011;18003;-33.830;151.202;2022-10-31T03:31:58;2.30;;;1.50;;
25667;SDS011;18003;-33.830;151.202;2022-10-31T03:34:30;2.08;;;1.30;;
25667;SDS011;18003;-33.830;151.202;2022-10-31T03:37:03;1.75;;;1.60;;
25667;SDS011;18003;-33.830;151.202;2022-10-31T03:39:34;1.62;;;1.40;;
25667;SDS011;18003;-33.830;151.202;2022-10-31T03:42:18;1.95;;;1.47;;
25667;SDS011;18003;-33.830;151.202;2022-10-31T03:44:59;1.60;;;1.50;;
25667;SDS011;18003;-33.830;151.202;2022-10-31T03:47:26;1.80;;;1.70;;
25667;SDS011;18003;-33.830;151.202;2022-10-31T03:49:56;1.32;;;1.22;;
25667;SDS011;18003;-33.830;151.202;2022-10-31T03:52:43;3.08;;;1.87;;
25667;SDS011;18003;-33.830;151.202;2022-10-31T03:55:17;1.82;;;1.70;;
25667;SDS011;18003;-33.830;151.202;2022-10-31T03:57:57;4.35;;;2.47;;
25667;SDS011;18003;-33.830;151.202;2022-10-31T04:00:27;4.15;;;1.50;;
25667;SDS011;18003;-33.830;151.202;2022-10-31T04:03:14;5.55;;;1.57;;
25667;SDS011;18003;-33.830;151.202;2022-10-31T04:05:40;1.63;;;1.40;;
25667;SDS011;18003;-33.830;151.202;2022-10-31T04:08:12;1.30;;;1.20;;
25667;SDS011;18003;-33.830;151.202;2022-10-31T04:10:44;3.90;;;1.22;;
25667;SDS011;18003;-33.830;151.202;2022-10-31T04:13:17;1.10;;;1.10;;
25667;SDS011;18003;-33.830;151.202;2022-10-31T04:15:48;1.30;;;1.20;;
25667;SDS011;18003;-33.830;151.202;2022-10-31T04:18:19;2.72;;;1.35;;
25667;SDS011;18003;-33.830;151.202;2022-10-31T04:20:58;1.05;;;1.05;;
25667;SDS011;18003;-33.830;151.202;2022-10-31T04:23:31;1.10;;;1.10;;
25667;SDS011;18003;-33.830;151.202;2022-10-31T04:26:02;1.20;;;1.10;;
25667;SDS011;18003;-33.830;151.202;2022-10-31T04:28:32;1.35;;;1.10;;
25667;SDS011;18003;-33.830;151.202;2022-10-31T04:31:02;1.00;;;1.00;;
25667;SDS011;18003;-33.830;151.202;2022-10-31T04:33:33;2.33;;;1.30;;
25667;SDS011;18003;-33.830;151.202;2022-10-31T04:36:04;2.67;;;1.20;;
25667;SDS011;18003;-33.830;151.202;2022-10-31T04:38:34;1.30;;;1.20;;
25667;SDS011;18003;-33.830;151.202;2022-10-31T04:41:04;2.65;;;1.20;;
25667;SDS011;18003;-33.830;151.202;2022-10-31T04:43:35;1.60;;;1.15;;
25667;SDS011;18003;-33.830;151.202;2022-10-31T04:46:05;1.00;;;1.00;;
25667;SDS011;18003;-33.830;151.202;2022-10-31T04:48:37;1.00;;;1.00;;
25667;SDS011;18003;-33.830;151.202;2022-10-31T04:51:09;1.10;;;1.10;;
25667;SDS011;18003;-33.830;151.202;2022-10-31T04:53:39;1.00;;;1.00;;
25667;SDS011;18003;-33.830;151.202;2022-10-31T04:56:09;2.75;;;0.98;;
25667;SDS011;18003;-33.830;151.202;2022-10-31T04:58:39;1.10;;;1.00;;
25667;SDS011;18003;-33.830;151.202;2022-10-31T05:01:10;1.62;;;1.00;;
25667;SDS011;18003;-33.830;151.202;2022-10-31T05:03:41;2.62;;;1.15;;
25667;SDS011;18003;-33.830;151.202;2022-10-31T05:06:11;1.10;;;1.00;;
25667;SDS011;18003;-33.830;151.202;2022-10-31T05:08:42;4.00;;;1.30;;
25667;SDS011;18003;-33.830;151.202;2022-10-31T05:11:12;3.05;;;1.10;;
25667;SDS011;18003;-33.830;151.202;2022-10-31T05:13:42;2.47;;;1.00;;
25667;SDS011;18003;-33.830;151.202;2022-10-31T05:16:12;1.00;;;0.90;;
25667;SDS011;18003;-33.830;151.202;2022-10-31T05:18:42;2.75;;;0.98;;
25667;SDS011;18003;-33.830;151.202;2022-10-31T05:21:12;3.02;;;1.10;;
25667;SDS011;18003;-33.830;151.202;2022-10-31T05:23:43;1.07;;;1.07;;
25667;SDS011;18003;-33.830;151.202;2022-10-31T05:26:13;3.30;;;1.10;;
25667;SDS011;18003;-33.830;151.202;2022-10-31T05:28:43;0.80;;;0.80;;
25667;SDS011;18003;-33.830;151.202;2022-10-31T05:31:13;1.10;;;1.07;;
25667;SDS011;18003;-33.830;151.202;2022-10-31T05:33:43;1.57;;;1.10;;
25667;SDS011;18003;-33.830;151.202;2022-10-31T05:36:13;1.00;;;0.90;;
25667;SDS011;18003;-33.830;151.202;2022-10-31T05:38:44;1.10;;;1.10;;
25667;SDS011;18003;-33.830;151.202;2022-10-31T05:41:14;1.22;;;1.07;;
25667;SDS011;18003;-33.830;151.202;2022-10-31T05:43:44;2.70;;;1.07;;
25667;SDS011;18003;-33.830;151.202;2022-10-31T05:46:14;1.20;;;1.20;;
25667;SDS011;18003;-33.830;151.202;2022-10-31T05:48:44;14.35;;;2.15;;
25667;SDS011;18003;-33.830;151.202;2022-10-31T05:51:14;7.85;;;1.50;;
25667;SDS011;18003;-33.830;151.202;2022-10-31T05:53:45;1.98;;;1.60;;
25667;SDS011;18003;-33.830;151.202;2022-10-31T05:56:15;4.65;;;1.20;;
25667;SDS011;18003;-33.830;151.202;2022-10-31T05:58:45;1.50;;;1.20;;
25667;SDS011;18003;-33.830;151.202;2022-10-31T06:01:15;2.87;;;1.47;;
25667;SDS011;18003;-33.830;151.202;2022-10-31T06:03:45;4.03;;;1.30;;
25667;SDS011;18003;-33.830;151.202;2022-10-31T06:06:15;1.85;;;1.40;;
25667;SDS011;18003;-33.830;151.202;2022-10-31T06:08:45;3.05;;;1.50;;
25667;SDS011;18003;-33.830;151.202;2022-10-31T06:11:15;3.20;;;1.30;;
25667;SDS011;18003;-33.830;151.202;2022-10-31T06:13:45;1.32;;;1.22;;
25667;SDS011;18003;-33.830;151.202;2022-10-31T06:16:15;1.40;;;1.30;;
25667;SDS011;18003;-33.830;151.202;2022-10-31T06:18:45;2.67;;;1.45;;
25667;SDS011;18003;-33.830;151.202;2022-10-31T06:21:15;3.33;;;1.40;;
25667;SDS011;18003;-33.830;151.202;2022-10-31T06:23:46;3.85;;;1.62;;
25667;SDS011;18003;-33.830;151.202;2022-10-31T06:26:16;1.52;;;1.20;;
25667;SDS011;18003;-33.830;151.202;2022-10-31T06:28:46;1.82;;;1.37;;
25667;SDS011;18003;-33.830;151.202;2022-10-31T06:31:16;3.62;;;1.47;;
25667;SDS011;18003;-33.830;151.202;2022-10-31T06:33:46;2.45;;;1.57;;
25667;SDS011;18003;-33.830;151.202;2022-10-31T06:36:16;2.47;;;1.50;;
25667;SDS011;18003;-33.830;151.202;2022-10-31T06:38:46;1.67;;;1.57;;
25667;SDS011;18003;-33.830;151.202;2022-10-31T06:41:36;1.90;;;1.50;;
25667;SDS011;18003;-33.830;151.202;2022-10-31T06:44:06;1.75;;;1.65;;
25667;SDS011;18003;-33.830;151.202;2022-10-31T06:46:36;2.40;;;2.20;;
25667;SDS011;18003;-33.830;151.202;2022-10-31T06:49:07;2.20;;;2.10;;
25667;SDS011;18003;-33.830;151.202;2022-10-31T06:51:38;4.70;;;3.55;;
25667;SDS011;18003;-33.830;151.202;2022-10-31T06:54:09;2.40;;;2.20;;
25667;SDS011;18003;-33.830;151.202;2022-10-31T06:56:39;2.10;;;2.00;;
25667;SDS011;18003;-33.830;151.202;2022-10-31T06:59:09;1.82;;;1.72;;
25667;SDS011;18003;-33.830;151.202;2022-10-31T07:01:40;1.90;;;1.80;;
25667;SDS011;18003;-33.830;151.202;2022-10-31T07:04:13;2.92;;;1.65;;
25667;SDS011;18003;-33.830;151.202;2022-10-31T07:06:43;12.68;;;2.00;;
25667;SDS011;18003;-33.830;151.202;2022-10-31T07:09:13;5.40;;;1.70;;
25667;SDS011;18003;-33.830;151.202;2022-10-31T07:11:43;3.85;;;1.70;;
25667;SDS011;18003;-33.830;151.202;2022-10-31T07:14:13;4.35;;;1.57;;
25667;SDS011;18003;-33.830;151.202;2022-10-31T07:16:43;3.90;;;1.70;;
25667;SDS011;18003;-33.830;151.202;2022-10-31T07:19:15;1.60;;;1.50;;
25667;SDS011;18003;-33.830;151.202;2022-10-31T07:21:49;1.90;;;1.20;;
25667;SDS011;18003;-33.830;151.202;2022-10-31T07:24:20;1.42;;;1.32;;
25667;SDS011;18003;-33.830;151.202;2022-10-31T07:26:56;1.65;;;1.55;;
25667;SDS011;18003;-33.830;151.202;2022-10-31T07:29:21;1.40;;;1.30;;
25667;SDS011;18003;-33.830;151.202;2022-10-31T07:31:52;1.37;;;1.27;;
25667;SDS011;18003;-33.830;151.202;2022-10-31T07:34:25;1.40;;;1.37;;
25667;SDS011;18003;-33.830;151.202;2022-10-31T07:36:55;1.22;;;1.12;;
25667;SDS011;18003;-33.830;151.202;2022-10-31T07:39:25;1.60;;;1.50;;
25667;SDS011;18003;-33.830;151.202;2022-10-31T07:41:57;1.87;;;1.30;;
25667;SDS011;18003;-33.830;151.202;2022-10-31T07:44:27;1.37;;;1.30;;
25667;SDS011;18003;-33.830;151.202;2022-10-31T07:46:57;2.08;;;1.35;;
25667;SDS011;18003;-33.830;151.202;2022-10-31T07:49:27;2.90;;;1.57;;
25667;SDS011;18003;-33.830;151.202;2022-10-31T07:51:57;4.83;;;1.42;;
25667;SDS011;18003;-33.830;151.202;2022-10-31T07:54:27;1.50;;;1.40;;
25667;SDS011;18003;-33.830;151.202;2022-10-31T07:56:57;1.80;;;1.50;;
25667;SDS011;18003;-33.830;151.202;2022-10-31T07:59:27;1.92;;;1.60;;
25667;SDS011;18003;-33.830;151.202;2022-10-31T08:01:57;1.72;;;1.50;;
25667;SDS011;18003;-33.830;151.202;2022-10-31T08:04:28;1.55;;;1.40;;
25667;SDS011;18003;-33.830;151.202;2022-10-31T08:06:58;5.12;;;1.45;;
25667;SDS011;18003;-33.830;151.202;2022-10-31T08:09:28;2.40;;;1.37;;
25667;SDS011;18003;-33.830;151.202;2022-10-31T08:11:58;1.87;;;1.37;;
25667;SDS011;18003;-33.830;151.202;2022-10-31T08:14:28;2.92;;;1.50;;
25667;SDS011;18003;-33.830;151.202;2022-10-31T08:16:58;1.70;;;1.60;;
25667;SDS011;18003;-33.830;151.202;2022-10-31T08:19:28;2.55;;;1.42;;
25667;SDS011;18003;-33.830;151.202;2022-10-31T08:21:58;1.75;;;1.65;;
25667;SDS011;18003;-33.830;151.202;2022-10-31T08:24:28;2.47;;;1.40;;
25667;SDS011;18003;-33.830;151.202;2022-10-31T08:26:58;1.50;;;1.40;;
25667;SDS011;18003;-33.830;151.202;2022-10-31T08:29:28;1.75;;;1.42;;
25667;SDS011;18003;-33.830;151.202;2022-10-31T08:31:57;2.05;;;1.50;;
25667;SDS011;18003;-33.830;151.202;2022-10-31T08:34:27;1.70;;;1.60;;
25667;SDS011;18003;-33.830;151.202;2022-10-31T08:36:57;3.58;;;1.50;;
25667;SDS011;18003;-33.830;151.202;2022-10-31T08:39:28;1.70;;;1.42;;
25667;SDS011;18003;-33.830;151.202;2022-10-31T08:41:58;1.92;;;1.52;;
25667;SDS011;18003;-33.830;151.202;2022-10-31T08:44:28;1.70;;;1.30;;
25667;SDS011;18003;-33.830;151.202;2022-10-31T08:46:58;3.90;;;1.40;;
25667;SDS011;18003;-33.830;151.202;2022-10-31T08:49:28;2.80;;;1.53;;
25667;SDS011;18003;-33.830;151.202;2022-10-31T08:51:58;1.62;;;1.52;;
25667;SDS011;18003;-33.830;151.202;2022-10-31T08:54:28;2.22;;;1.50;;
25667;SDS011;18003;-33.830;151.202;2022-10-31T08:57:00;1.82;;;1.40;;
25667;SDS011;18003;-33.830;151.202;2022-10-31T08:59:30;1.32;;;1.25;;
25667;SDS011;18003;-33.830;151.202;2022-10-31T09:02:00;1.55;;;1.45;;
25667;SDS011;18003;-33.830;151.202;2022-10-31T09:04:30;1.90;;;1.37;;
25667;SDS011;18003;-33.830;151.202;2022-10-31T09:07:00;1.47;;;1.37;;
25667;SDS011;18003;-33.830;151.202;2022-10-31T09:09:29;1.42;;;1.15;;
25667;SDS011;18003;-33.830;151.202;2022-10-31T09:11:59;1.47;;;1.30;;
25667;SDS011;18003;-33.830;151.202;2022-10-31T09:14:29;1.57;;;1.40;;
25667;SDS011;18003;-33.830;151.202;2022-10-31T09:17:00;1.40;;;1.20;;
25667;SDS011;18003;-33.830;151.202;2022-10-31T09:19:29;1.30;;;1.20;;
25667;SDS011;18003;-33.830;151.202;2022-10-31T09:22:01;2.62;;;1.20;;
25667;SDS011;18003;-33.830;151.202;2022-10-31T09:24:31;10.18;;;1.70;;
25667;SDS011;18003;-33.830;151.202;2022-10-31T09:27:01;4.53;;;1.40;;
25667;SDS011;18003;-33.830;151.202;2022-10-31T09:29:32;3.25;;;1.30;;
25667;SDS011;18003;-33.830;151.202;2022-10-31T09:32:02;1.27;;;1.02;;
25667;SDS011;18003;-33.830;151.202;2022-10-31T09:34:32;2.25;;;1.20;;
25667;SDS011;18003;-33.830;151.202;2022-10-31T09:37:01;1.40;;;1.10;;
25667;SDS011;18003;-33.830;151.202;2022-10-31T09:39:31;2.15;;;1.32;;
25667;SDS011;18003;-33.830;151.202;2022-10-31T09:42:03;1.22;;;1.10;;
25667;SDS011;18003;-33.830;151.202;2022-10-31T09:47:24;1.77;;;1.32;;
25667;SDS011;18003;-33.830;151.202;2022-10-31T09:50:15;1.00;;;1.00;;
25667;SDS011;18003;-33.830;151.202;2022-10-31T09:52:43;2.47;;;1.00;;
25667;SDS011;18003;-33.830;151.202;2022-10-31T09:55:14;1.10;;;1.10;;
25667;SDS011;18003;-33.830;151.202;2022-10-31T09:57:45;1.25;;;1.15;;
25667;SDS011;18003;-33.830;151.202;2022-10-31T10:00:17;1.07;;;1.00;;
25667;SDS011;18003;-33.830;151.202;2022-10-31T10:03:01;1.12;;;1.00;;
25667;SDS011;18003;-33.830;151.202;2022-10-31T10:05:55;1.60;;;1.20;;
25667;SDS011;18003;-33.830;151.202;2022-10-31T10:08:08;1.77;;;1.30;;
25667;SDS011;18003;-33.830;151.202;2022-10-31T10:10:51;1.22;;;1.10;;
25667;SDS011;18003;-33.830;151.202;2022-10-31T10:13:44;1.35;;;1.20;;
25667;SDS011;18003;-33.830;151.202;2022-10-31T10:16:18;2.17;;;1.10;;
25667;SDS011;18003;-33.830;151.202;2022-10-31T10:21:30;2.17;;;1.30;;
25667;SDS011;18003;-33.830;151.202;2022-10-31T10:24:03;1.10;;;1.10;;
25667;SDS011;18003;-33.830;151.202;2022-10-31T10:26:38;1.25;;;1.10;;
25667;SDS011;18003;-33.830;151.202;2022-10-31T10:31:52;1.10;;;1.00;;
25667;SDS011;18003;-33.830;151.202;2022-10-31T10:34:26;1.40;;;1.30;;
25667;SDS011;18003;-33.830;151.202;2022-10-31T10:37:12;3.17;;;1.27;;
25667;SDS011;18003;-33.830;151.202;2022-10-31T10:39:40;1.30;;;1.20;;
25667;SDS011;18003;-33.830;151.202;2022-10-31T10:42:12;1.60;;;1.40;;
25667;SDS011;18003;-33.830;151.202;2022-10-31T10:45:06;2.08;;;1.30;;
25667;SDS011;18003;-33.830;151.202;2022-10-31T10:48:11;1.40;;;1.30;;
25667;SDS011;18003;-33.830;151.202;2022-10-31T10:50:48;1.47;;;1.40;;
25667;SDS011;18003;-33.830;151.202;2022-10-31T10:56:07;1.50;;;1.50;;
25667;SDS011;18003;-33.830;151.202;2022-10-31T10:58:41;1.60;;;1.50;;
25667;SDS011;18003;-33.830;151.202;2022-10-31T11:01:12;1.70;;;1.60;;
25667;SDS011;18003;-33.830;151.202;2022-10-31T11:03:42;2.10;;;1.57;;
25667;SDS011;18003;-33.830;151.202;2022-10-31T11:06:19;1.47;;;1.40;;
25667;SDS011;18003;-33.830;151.202;2022-10-31T11:08:51;1.25;;;1.25;;
25667;SDS011;18003;-33.830;151.202;2022-10-31T11:14:05;1.50;;;1.40;;
25667;SDS011;18003;-33.830;151.202;2022-10-31T11:16:38;1.57;;;1.47;;
25667;SDS011;18003;-33.830;151.202;2022-10-31T11:21:50;1.70;;;1.60;;
25667;SDS011;18003;-33.830;151.202;2022-10-31T11:24:21;1.50;;;1.40;;
25667;SDS011;18003;-33.830;151.202;2022-10-31T11:27:02;1.60;;;1.50;;
25667;SDS011;18003;-33.830;151.202;2022-10-31T11:29:24;1.92;;;1.40;;
25667;SDS011;18003;-33.830;151.202;2022-10-31T11:31:58;1.40;;;1.40;;
25667;SDS011;18003;-33.830;151.202;2022-10-31T11:34:32;1.70;;;1.60;;
25667;SDS011;18003;-33.830;151.202;2022-10-31T11:39:57;1.70;;;1.60;;
25667;SDS011;18003;-33.830;151.202;2022-10-31T11:42:30;1.60;;;1.50;;
25667;SDS011;18003;-33.830;151.202;2022-10-31T11:45:16;1.75;;;1.65;;
25667;SDS011;18003;-33.830;151.202;2022-10-31T11:47:47;1.60;;;1.50;;
25667;SDS011;18003;-33.830;151.202;2022-10-31T11:50:27;3.42;;;1.60;;
25667;SDS011;18003;-33.830;151.202;2022-10-31T11:52:58;1.60;;;1.50;;
25667;SDS011;18003;-33.830;151.202;2022-10-31T11:55:33;1.60;;;1.50;;
25667;SDS011;18003;-33.830;151.202;2022-10-31T11:58:03;2.33;;;1.50;;
25667;SDS011;18003;-33.830;151.202;2022-10-31T12:00:37;1.50;;;1.37;;
25667;SDS011;18003;-33.830;151.202;2022-10-31T12:06:00;1.95;;;1.70;;
25667;SDS011;18003;-33.830;151.202;2022-10-31T12:08:34;2.98;;;1.60;;
25667;SDS011;18003;-33.830;151.202;2022-10-31T12:19:16;2.00;;;1.80;;
25667;SDS011;18003;-33.830;151.202;2022-10-31T12:36:21;2.25;;;1.60;;
25667;SDS011;18003;-33.830;151.202;2022-10-31T12:41:52;2.90;;;1.70;;
25667;SDS011;18003;-33.830;151.202;2022-10-31T12:44:40;1.57;;;1.47;;
25667;SDS011;18003;-33.830;151.202;2022-10-31T12:56:02;2.72;;;1.82;;
25667;SDS011;18003;-33.830;151.202;2022-10-31T12:58:50;1.80;;;1.70;;
25667;SDS011;18003;-33.830;151.202;2022-10-31T13:02:00;1.55;;;1.45;;
25667;SDS011;18003;-33.830;151.202;2022-10-31T13:07:00;1.70;;;1.60;;
25667;SDS011;18003;-33.830;151.202;2022-10-31T13:09:31;1.70;;;1.60;;
25667;SDS011;18003;-33.830;151.202;2022-10-31T13:12:14;1.70;;;1.60;;
25667;SDS011;18003;-33.830;151.202;2022-10-31T13:15:04;1.90;;;1.80;;
25667;SDS011;18003;-33.830;151.202;2022-10-31T13:19:55;2.27;;;1.82;;
25667;SDS011;18003;-33.830;151.202;2022-10-31T13:22:26;1.70;;;1.60;;
25667;SDS011;18003;-33.830;151.202;2022-10-31T13:24:59;1.72;;;1.62;;
25667;SDS011;18003;-33.830;151.202;2022-10-31T13:30:32;2.00;;;1.80;;
25667;SDS011;18003;-33.830;151.202;2022-10-31T13:35:47;1.60;;;1.50;;
25667;SDS011;18003;-33.830;151.202;2022-10-31T13:46:52;5.17;;;2.10;;
25667;SDS011;18003;-33.830;151.202;2022-10-31T13:52:06;1.50;;;1.40;;
25667;SDS011;18003;-33.830;151.202;2022-10-31T13:54:43;1.62;;;1.50;;
25667;SDS011;18003;-33.830;151.202;2022-10-31T13:57:19;1.77;;;1.50;;
25667;SDS011;18003;-33.830;151.202;2022-10-31T14:00:22;1.65;;;1.55;;
25667;SDS011;18003;-33.830;151.202;2022-10-31T14:02:50;2.45;;;1.52;;
25667;SDS011;18003;-33.830;151.202;2022-10-31T14:08:00;1.80;;;1.70;;
25667;SDS011;18003;-33.830;151.202;2022-10-31T14:10:31;1.65;;;1.55;;
25667;SDS011;18003;-33.830;151.202;2022-10-31T14:13:07;2.55;;;1.60;;
25667;SDS011;18003;-33.830;151.202;2022-10-31T14:15:37;1.98;;;1.50;;
25667;SDS011;18003;-33.830;151.202;2022-10-31T14:23:54;1.70;;;1.60;;
25667;SDS011;18003;-33.830;151.202;2022-10-31T14:29:01;1.60;;;1.52;;
25667;SDS011;18003;-33.830;151.202;2022-10-31T14:31:41;2.27;;;1.40;;
25667;SDS011;18003;-33.830;151.202;2022-10-31T14:34:22;1.60;;;1.50;;
25667;SDS011;18003;-33.830;151.202;2022-10-31T14:39:58;1.70;;;1.60;;
25667;SDS011;18003;-33.830;151.202;2022-10-31T14:45:15;6.45;;;1.60;;
25667;SDS011;18003;-33.830;151.202;2022-10-31T14:50:42;1.60;;;1.50;;
25667;SDS011;18003;-33.830;151.202;2022-10-31T14:56:08;1.40;;;1.30;;
25667;SDS011;18003;-33.830;151.202;2022-10-31T14:58:39;1.77;;;1.40;;
25667;SDS011;18003;-33.830;151.202;2022-10-31T15:01:21;2.47;;;1.35;;
25667;SDS011;18003;-33.830;151.202;2022-10-31T15:03:58;2.15;;;1.40;;
25667;SDS011;18003;-33.830;151.202;2022-10-31T15:06:36;1.62;;;1.40;;
25667;SDS011;18003;-33.830;151.202;2022-10-31T15:09:25;1.50;;;1.40;;
25667;SDS011;18003;-33.830;151.202;2022-10-31T15:11:58;1.70;;;1.40;;
25667;SDS011;18003;-33.830;151.202;2022-10-31T15:14:28;1.50;;;1.30;;
25667;SDS011;18003;-33.830;151.202;2022-10-31T15:17:00;1.40;;;1.30;;
25667;SDS011;18003;-33.830;151.202;2022-10-31T15:19:30;1.40;;;1.30;;
25667;SDS011;18003;-33.830;151.202;2022-10-31T15:22:03;1.37;;;1.27;;
25667;SDS011;18003;-33.830;151.202;2022-10-31T15:24:38;1.30;;;1.20;;
25667;SDS011;18003;-33.830;151.202;2022-10-31T15:27:05;1.35;;;1.25;;
25667;SDS011;18003;-33.830;151.202;2022-10-31T15:29:46;1.57;;;1.47;;
25667;SDS011;18003;-33.830;151.202;2022-10-31T15:32:23;2.98;;;1.70;;
25667;SDS011;18003;-33.830;151.202;2022-10-31T15:34:54;1.60;;;1.27;;
25667;SDS011;18003;-33.830;151.202;2022-10-31T15:37:24;2.22;;;1.80;;
25667;SDS011;18003;-33.830;151.202;2022-10-31T15:39:55;3.53;;;1.40;;
25667;SDS011;18003;-33.830;151.202;2022-10-31T15:42:30;1.50;;;1.40;;
25667;SDS011;18003;-33.830;151.202;2022-10-31T15:47:35;1.32;;;1.20;;
25667;SDS011;18003;-33.830;151.202;2022-10-31T15:50:06;1.35;;;1.25;;
25667;SDS011;18003;-33.830;151.202;2022-10-31T15:52:44;2.15;;;1.20;;
25667;SDS011;18003;-33.830;151.202;2022-10-31T15:55:18;1.35;;;1.25;;
25667;SDS011;18003;-33.830;151.202;2022-10-31T15:57:52;2.25;;;1.50;;
25667;SDS011;18003;-33.830;151.202;2022-10-31T16:00:30;1.40;;;1.30;;
25667;SDS011;18003;-33.830;151.202;2022-10-31T16:08:23;1.47;;;1.30;;
25667;SDS011;18003;-33.830;151.202;2022-10-31T16:10:57;1.70;;;1.55;;
25667;SDS011;18003;-33.830;151.202;2022-10-31T16:13:33;1.20;;;1.20;;
25667;SDS011;18003;-33.830;151.202;2022-10-31T16:16:11;1.50;;;1.35;;
25667;SDS011;18003;-33.830;151.202;2022-10-31T16:18:42;1.40;;;1.30;;
25667;SDS011;18003;-33.830;151.202;2022-10-31T16:21:12;1.10;;;1.10;;
25667;SDS011;18003;-33.830;151.202;2022-10-31T16:23:44;1.77;;;1.40;;
25667;SDS011;18003;-33.830;151.202;2022-10-31T16:26:16;2.95;;;1.40;;
25667;SDS011;18003;-33.830;151.202;2022-10-31T16:28:53;1.40;;;1.30;;
25667;SDS011;18003;-33.830;151.202;2022-10-31T16:31:57;1.40;;;1.30;;
25667;SDS011;18003;-33.830;151.202;2022-10-31T16:34:13;1.50;;;1.40;;
25667;SDS011;18003;-33.830;151.202;2022-10-31T16:36:43;1.50;;;1.37;;
25667;SDS011;18003;-33.830;151.202;2022-10-31T16:39:13;2.45;;;1.40;;
25667;SDS011;18003;-33.830;151.202;2022-10-31T16:41:45;1.40;;;1.30;;
25667;SDS011;18003;-33.830;151.202;2022-10-31T16:44:24;1.50;;;1.40;;
25667;SDS011;18003;-33.830;151.202;2022-10-31T16:49:44;1.62;;;1.37;;
25667;SDS011;18003;-33.830;151.202;2022-10-31T16:52:19;2.25;;;1.40;;
25667;SDS011;18003;-33.830;151.202;2022-10-31T16:54:49;1.52;;;1.42;;
25667;SDS011;18003;-33.830;151.202;2022-10-31T16:57:19;2.40;;;1.50;;
25667;SDS011;18003;-33.830;151.202;2022-10-31T16:59:51;1.17;;;1.17;;
25667;SDS011;18003;-33.830;151.202;2022-10-31T17:02:24;2.17;;;1.50;;